sensor_id;sensor_type;location;lat;lon;timestamp;P1;durP1;ratioP1;P2;durP2;ratioP2
32786;SDS011;19139;49.372;8.580;2023-04-16T00:00:45;1.23;;;0.70;;
32786;SDS011;19139;49.372;8.580;2023-04-16T00:03:18;1.43;;;0.80;;
32786;SDS011;19139;49.372;8.580;2023-04-16T00:05:45;2.23;;;1.20;;
32786;SDS011;19139;49.372;8.580;2023-04-16T00:08:12;2.40;;;0.80;;
32786;SDS011;19139;49.372;8.580;2023-04-16T00:10:43;0.97;;;0.83;;
32786;SDS011;19139;49.372;8.580;2023-04-16T00:13:10;1.47;;;0.90;;
32786;SDS011;19139;49.372;8.580;2023-04-16T00:15:41;1.27;;;0.87;;
32786;SDS011;19139;49.372;8.580;2023-04-16T00:18:08;1.20;;;0.90;;
32786;SDS011;19139;49.372;8.580;2023-04-16T00:20:35;1.63;;;1.30;;
32786;SDS011;19139;49.372;8.580;2023-04-16T00:23:06;1.90;;;1.37;;
32786;SDS011;19139;49.372;8.580;2023-04-16T00:25:38;2.03;;;0.90;;
32786;SDS011;19139;49.372;8.580;2023-04-16T00:28:04;1.10;;;0.90;;
32786;SDS011;19139;49.372;8.580;2023-04-16T00:30:31;1.80;;;1.03;;
32786;SDS011;19139;49.372;8.580;2023-04-16T00:32:57;1.20;;;1.10;;
32786;SDS011;19139;49.372;8.580;2023-04-16T00:35:29;1.23;;;0.83;;
32786;SDS011;19139;49.372;8.580;2023-04-16T00:38:01;1.93;;;1.00;;
32786;SDS011;19139;49.372;8.580;2023-04-16T00:40:28;1.00;;;0.90;;
32786;SDS011;19139;49.372;8.580;2023-04-16T00:42:55;3.43;;;1.13;;
32786;SDS011;19139;49.372;8.580;2023-04-16T00:45:21;1.17;;;0.90;;
32786;SDS011;19139;49.372;8.580;2023-04-16T00:47:48;0.93;;;0.60;;
32786;SDS011;19139;49.372;8.580;2023-04-16T00:50:15;1.70;;;0.97;;
32786;SDS011;19139;49.372;8.580;2023-04-16T00:52:47;1.87;;;1.10;;
32786;SDS011;19139;49.372;8.580;2023-04-16T00:55:19;1.47;;;0.80;;
32786;SDS011;19139;49.372;8.580;2023-04-16T00:57:51;1.07;;;0.60;;
32786;SDS011;19139;49.372;8.580;2023-04-16T01:00:22;0.90;;;0.70;;
32786;SDS011;19139;49.372;8.580;2023-04-16T01:02:54;1.37;;;1.03;;
32786;SDS011;19139;49.372;8.580;2023-04-16T01:05:26;1.70;;;0.80;;
32786;SDS011;19139;49.372;8.580;2023-04-16T01:07:58;1.13;;;0.70;;
32786;SDS011;19139;49.372;8.580;2023-04-16T01:10:32;1.23;;;0.93;;
32786;SDS011;19139;49.372;8.580;2023-04-16T01:12:59;2.70;;;2.03;;
32786;SDS011;19139;49.372;8.580;2023-04-16T01:15:30;1.33;;;0.83;;
32786;SDS011;19139;49.372;8.580;2023-04-16T01:18:02;1.77;;;1.67;;
32786;SDS011;19139;49.372;8.580;2023-04-16T01:20:38;0.83;;;0.67;;
32786;SDS011;19139;49.372;8.580;2023-04-16T01:23:04;1.43;;;0.93;;
32786;SDS011;19139;49.372;8.580;2023-04-16T01:25:36;1.43;;;0.70;;
32786;SDS011;19139;49.372;8.580;2023-04-16T01:28:08;1.07;;;0.97;;
32786;SDS011;19139;49.372;8.580;2023-04-16T01:30:39;1.20;;;0.73;;
32786;SDS011;19139;49.372;8.580;2023-04-16T01:33:11;0.70;;;0.70;;
32786;SDS011;19139;49.372;8.580;2023-04-16T01:35:44;1.17;;;0.70;;
32786;SDS011;19139;49.372;8.580;2023-04-16T01:38:15;1.47;;;0.90;;
32786;SDS011;19139;49.372;8.580;2023-04-16T01:40:47;0.83;;;0.70;;
32786;SDS011;19139;49.372;8.580;2023-04-16T01:43:14;1.77;;;1.10;;
32786;SDS011;19139;49.372;8.580;2023-04-16T01:45:41;1.23;;;0.60;;
32786;SDS011;19139;49.372;8.580;2023-04-16T01:48:07;1.17;;;1.03;;
32786;SDS011;19139;49.372;8.580;2023-04-16T01:50:34;1.00;;;0.80;;
32786;SDS011;19139;49.372;8.580;2023-04-16T01:53:01;1.63;;;1.00;;
32786;SDS011;19139;49.372;8.580;2023-04-16T01:55:31;1.90;;;0.77;;
32786;SDS011;19139;49.372;8.580;2023-04-16T01:57:58;0.97;;;0.87;;
32786;SDS011;19139;49.372;8.580;2023-04-16T02:00:24;1.23;;;1.07;;
32786;SDS011;19139;49.372;8.580;2023-04-16T02:02:51;1.20;;;1.00;;
32786;SDS011;19139;49.372;8.580;2023-04-16T02:05:18;1.97;;;1.00;;
32786;SDS011;19139;49.372;8.580;2023-04-16T02:07:49;1.60;;;1.00;;
32786;SDS011;19139;49.372;8.580;2023-04-16T02:10:16;1.10;;;0.87;;
32786;SDS011;19139;49.372;8.580;2023-04-16T02:12:43;1.00;;;0.90;;
32786;SDS011;19139;49.372;8.580;2023-04-16T02:15:09;1.70;;;0.90;;
32786;SDS011;19139;49.372;8.580;2023-04-16T02:17:36;1.67;;;1.17;;
32786;SDS011;19139;49.372;8.580;2023-04-16T02:20:03;1.40;;;0.73;;
32786;SDS011;19139;49.372;8.580;2023-04-16T02:22:33;1.20;;;1.03;;
32786;SDS011;19139;49.372;8.580;2023-04-16T02:24:59;0.90;;;0.80;;
32786;SDS011;19139;49.372;8.580;2023-04-16T02:27:26;1.00;;;0.80;;
32786;SDS011;19139;49.372;8.580;2023-04-16T02:29:52;0.83;;;0.80;;
32786;SDS011;19139;49.372;8.580;2023-04-16T02:32:19;0.77;;;0.70;;
32786;SDS011;19139;49.372;8.580;2023-04-16T02:34:45;0.87;;;0.70;;
32786;SDS011;19139;49.372;8.580;2023-04-16T02:37:12;2.27;;;0.90;;
32786;SDS011;19139;49.372;8.580;2023-04-16T02:39:40;1.50;;;0.90;;
32786;SDS011;19139;49.372;8.580;2023-04-16T02:42:07;1.17;;;0.80;;
32786;SDS011;19139;49.372;8.580;2023-04-16T02:44:34;1.07;;;0.80;;
32786;SDS011;19139;49.372;8.580;2023-04-16T02:47:01;1.20;;;1.10;;
32786;SDS011;19139;49.372;8.580;2023-04-16T02:49:28;0.93;;;0.80;;
32786;SDS011;19139;49.372;8.580;2023-04-16T02:51:54;1.20;;;0.87;;
32786;SDS011;19139;49.372;8.580;2023-04-16T02:54:21;1.00;;;0.70;;
32786;SDS011;19139;49.372;8.580;2023-04-16T02:56:48;0.83;;;0.70;;
32786;SDS011;19139;49.372;8.580;2023-04-16T02:59:14;0.93;;;0.83;;
32786;SDS011;19139;49.372;8.580;2023-04-16T03:01:45;0.70;;;0.63;;
32786;SDS011;19139;49.372;8.580;2023-04-16T03:04:12;0.90;;;0.70;;
32786;SDS011;19139;49.372;8.580;2023-04-16T03:06:44;1.03;;;0.80;;
32786;SDS011;19139;49.372;8.580;2023-04-16T03:09:11;1.47;;;0.87;;
32786;SDS011;19139;49.372;8.580;2023-04-16T03:11:38;1.00;;;0.80;;
32786;SDS011;19139;49.372;8.580;2023-04-16T03:14:04;1.37;;;1.00;;
32786;SDS011;19139;49.372;8.580;2023-04-16T03:16:36;1.03;;;0.80;;
32786;SDS011;19139;49.372;8.580;2023-04-16T03:19:07;1.20;;;0.70;;
32786;SDS011;19139;49.372;8.580;2023-04-16T03:21:34;0.97;;;0.80;;
32786;SDS011;19139;49.372;8.580;2023-04-16T03:24:06;1.10;;;0.73;;
32786;SDS011;19139;49.372;8.580;2023-04-16T03:26:37;1.23;;;1.00;;
32786;SDS011;19139;49.372;8.580;2023-04-16T03:29:09;1.00;;;0.90;;
32786;SDS011;19139;49.372;8.580;2023-04-16T03:31:40;1.30;;;0.97;;
32786;SDS011;19139;49.372;8.580;2023-04-16T03:34:12;1.60;;;0.80;;
32786;SDS011;19139;49.372;8.580;2023-04-16T03:36:43;2.30;;;1.03;;
32786;SDS011;19139;49.372;8.580;2023-04-16T03:39:10;0.73;;;0.50;;
32786;SDS011;19139;49.372;8.580;2023-04-16T03:41:41;1.20;;;0.83;;
32786;SDS011;19139;49.372;8.580;2023-04-16T03:44:08;1.20;;;0.87;;
32786;SDS011;19139;49.372;8.580;2023-04-16T03:46:39;1.10;;;1.00;;
32786;SDS011;19139;49.372;8.580;2023-04-16T03:49:06;1.00;;;0.90;;
32786;SDS011;19139;49.372;8.580;2023-04-16T03:51:33;1.33;;;1.07;;
32786;SDS011;19139;49.372;8.580;2023-04-16T03:54:00;1.20;;;1.10;;
32786;SDS011;19139;49.372;8.580;2023-04-16T03:56:27;0.80;;;0.70;;
32786;SDS011;19139;49.372;8.580;2023-04-16T03:58:53;0.73;;;0.67;;
32786;SDS011;19139;49.372;8.580;2023-04-16T04:01:20;1.70;;;1.00;;
32786;SDS011;19139;49.372;8.580;2023-04-16T04:03:46;1.10;;;0.70;;
32786;SDS011;19139;49.372;8.580;2023-04-16T04:06:13;0.60;;;0.43;;
32786;SDS011;19139;49.372;8.580;2023-04-16T04:08:45;1.63;;;1.00;;
32786;SDS011;19139;49.372;8.580;2023-04-16T04:11:11;1.00;;;0.90;;
32786;SDS011;19139;49.372;8.580;2023-04-16T04:13:38;0.87;;;0.80;;
32786;SDS011;19139;49.372;8.580;2023-04-16T04:16:05;1.70;;;1.27;;
32786;SDS011;19139;49.372;8.580;2023-04-16T04:18:32;0.83;;;0.83;;
32786;SDS011;19139;49.372;8.580;2023-04-16T04:20:58;0.93;;;0.70;;
32786;SDS011;19139;49.372;8.580;2023-04-16T04:23:30;1.47;;;0.87;;
32786;SDS011;19139;49.372;8.580;2023-04-16T04:25:57;0.90;;;0.90;;
32786;SDS011;19139;49.372;8.580;2023-04-16T04:28:24;1.20;;;0.80;;
32786;SDS011;19139;49.372;8.580;2023-04-16T04:30:51;0.70;;;0.70;;
32786;SDS011;19139;49.372;8.580;2023-04-16T04:33:17;1.00;;;0.80;;
32786;SDS011;19139;49.372;8.580;2023-04-16T04:35:49;1.20;;;0.83;;
32786;SDS011;19139;49.372;8.580;2023-04-16T04:38:21;0.90;;;0.70;;
32786;SDS011;19139;49.372;8.580;2023-04-16T04:40:50;0.70;;;0.60;;
32786;SDS011;19139;49.372;8.580;2023-04-16T04:43:22;0.83;;;0.70;;
32786;SDS011;19139;49.372;8.580;2023-04-16T04:45:54;0.60;;;0.60;;
32786;SDS011;19139;49.372;8.580;2023-04-16T04:48:21;1.00;;;0.90;;
32786;SDS011;19139;49.372;8.580;2023-04-16T04:50:51;1.57;;;1.03;;
32786;SDS011;19139;49.372;8.580;2023-04-16T04:53:23;1.00;;;0.80;;
32786;SDS011;19139;49.372;8.580;2023-04-16T04:55:55;0.70;;;0.70;;
32786;SDS011;19139;49.372;8.580;2023-04-16T04:58:34;0.90;;;0.80;;
32786;SDS011;19139;49.372;8.580;2023-04-16T05:01:00;1.03;;;0.93;;
32786;SDS011;19139;49.372;8.580;2023-04-16T05:03:27;1.10;;;0.90;;
32786;SDS011;19139;49.372;8.580;2023-04-16T05:05:58;0.60;;;0.60;;
32786;SDS011;19139;49.372;8.580;2023-04-16T05:08:30;1.10;;;0.90;;
32786;SDS011;19139;49.372;8.580;2023-04-16T05:11:01;0.90;;;0.67;;
32786;SDS011;19139;49.372;8.580;2023-04-16T05:13:28;1.33;;;0.77;;
32786;SDS011;19139;49.372;8.580;2023-04-16T05:15:55;1.10;;;0.90;;
32786;SDS011;19139;49.372;8.580;2023-04-16T05:18:21;1.10;;;1.00;;
32786;SDS011;19139;49.372;8.580;2023-04-16T05:20:48;1.00;;;0.80;;
32786;SDS011;19139;49.372;8.580;2023-04-16T05:23:14;1.20;;;0.90;;
32786;SDS011;19139;49.372;8.580;2023-04-16T05:25:41;1.13;;;0.97;;
32786;SDS011;19139;49.372;8.580;2023-04-16T05:28:12;1.00;;;0.90;;
32786;SDS011;19139;49.372;8.580;2023-04-16T05:30:39;1.00;;;0.90;;
32786;SDS011;19139;49.372;8.580;2023-04-16T05:33:05;1.00;;;0.90;;
32786;SDS011;19139;49.372;8.580;2023-04-16T05:35:32;1.03;;;0.93;;
32786;SDS011;19139;49.372;8.580;2023-04-16T05:38:00;0.77;;;0.77;;
32786;SDS011;19139;49.372;8.580;2023-04-16T05:40:26;1.13;;;1.03;;
32786;SDS011;19139;49.372;8.580;2023-04-16T05:42:53;0.90;;;0.70;;
32786;SDS011;19139;49.372;8.580;2023-04-16T05:45:19;1.40;;;1.30;;
32786;SDS011;19139;49.372;8.580;2023-04-16T05:47:46;1.00;;;0.90;;
32786;SDS011;19139;49.372;8.580;2023-04-16T05:50:13;1.40;;;1.30;;
32786;SDS011;19139;49.372;8.580;2023-04-16T05:52:44;1.57;;;1.33;;
32786;SDS011;19139;49.372;8.580;2023-04-16T05:55:11;1.10;;;1.00;;
32786;SDS011;19139;49.372;8.580;2023-04-16T05:57:37;1.00;;;0.90;;
32786;SDS011;19139;49.372;8.580;2023-04-16T06:00:04;1.03;;;0.83;;
32786;SDS011;19139;49.372;8.580;2023-04-16T06:02:31;0.93;;;0.90;;
32786;SDS011;19139;49.372;8.580;2023-04-16T06:04:58;1.10;;;1.00;;
32786;SDS011;19139;49.372;8.580;2023-04-16T06:07:25;0.97;;;0.87;;
32786;SDS011;19139;49.372;8.580;2023-04-16T06:09:52;1.40;;;1.10;;
32786;SDS011;19139;49.372;8.580;2023-04-16T06:12:18;0.77;;;0.77;;
32786;SDS011;19139;49.372;8.580;2023-04-16T06:14:45;0.93;;;0.83;;
32786;SDS011;19139;49.372;8.580;2023-04-16T06:17:12;1.10;;;0.80;;
32786;SDS011;19139;49.372;8.580;2023-04-16T06:19:38;1.00;;;0.97;;
32786;SDS011;19139;49.372;8.580;2023-04-16T06:22:05;1.30;;;1.00;;
32786;SDS011;19139;49.372;8.580;2023-04-16T06:24:32;1.00;;;0.73;;
32786;SDS011;19139;49.372;8.580;2023-04-16T06:26:59;0.80;;;0.70;;
32786;SDS011;19139;49.372;8.580;2023-04-16T06:29:25;1.03;;;1.00;;
32786;SDS011;19139;49.372;8.580;2023-04-16T06:32:05;1.57;;;1.00;;
32786;SDS011;19139;49.372;8.580;2023-04-16T06:34:37;1.07;;;0.83;;
32786;SDS011;19139;49.372;8.580;2023-04-16T06:37:09;1.13;;;1.03;;
32786;SDS011;19139;49.372;8.580;2023-04-16T06:39:36;0.80;;;0.80;;
32786;SDS011;19139;49.372;8.580;2023-04-16T06:42:07;1.23;;;0.90;;
32786;SDS011;19139;49.372;8.580;2023-04-16T06:44:34;1.00;;;0.90;;
32786;SDS011;19139;49.372;8.580;2023-04-16T06:47:06;1.10;;;0.90;;
32786;SDS011;19139;49.372;8.580;2023-04-16T06:49:33;1.27;;;1.17;;
32786;SDS011;19139;49.372;8.580;2023-04-16T06:51:59;1.20;;;1.10;;
32786;SDS011;19139;49.372;8.580;2023-04-16T06:54:27;1.13;;;0.97;;
32786;SDS011;19139;49.372;8.580;2023-04-16T06:56:59;1.53;;;1.27;;
32786;SDS011;19139;49.372;8.580;2023-04-16T06:59:31;1.20;;;1.10;;
32786;SDS011;19139;49.372;8.580;2023-04-16T07:01:57;0.90;;;0.80;;
32786;SDS011;19139;49.372;8.580;2023-04-16T07:04:29;1.07;;;1.00;;
32786;SDS011;19139;49.372;8.580;2023-04-16T07:07:00;1.33;;;1.03;;
32786;SDS011;19139;49.372;8.580;2023-04-16T07:09:32;1.10;;;1.00;;
32786;SDS011;19139;49.372;8.580;2023-04-16T07:12:03;1.10;;;1.00;;
32786;SDS011;19139;49.372;8.580;2023-04-16T07:14:31;1.30;;;0.90;;
32786;SDS011;19139;49.372;8.580;2023-04-16T07:16:58;1.07;;;1.00;;
32786;SDS011;19139;49.372;8.580;2023-04-16T07:19:30;1.00;;;0.80;;
32786;SDS011;19139;49.372;8.580;2023-04-16T07:22:02;1.00;;;0.90;;
32786;SDS011;19139;49.372;8.580;2023-04-16T07:24:35;2.00;;;1.47;;
32786;SDS011;19139;49.372;8.580;2023-04-16T07:27:06;1.33;;;0.80;;
32786;SDS011;19139;49.372;8.580;2023-04-16T07:29:38;1.30;;;0.83;;
32786;SDS011;19139;49.372;8.580;2023-04-16T07:32:04;1.00;;;0.90;;
32786;SDS011;19139;49.372;8.580;2023-04-16T07:34:31;1.30;;;1.20;;
32786;SDS011;19139;49.372;8.580;2023-04-16T07:36:58;1.80;;;1.20;;
32786;SDS011;19139;49.372;8.580;2023-04-16T07:39:24;0.83;;;0.83;;
32786;SDS011;19139;49.372;8.580;2023-04-16T07:41:51;3.93;;;1.27;;
32786;SDS011;19139;49.372;8.580;2023-04-16T07:44:17;1.70;;;1.60;;
32786;SDS011;19139;49.372;8.580;2023-04-16T07:46:50;4.00;;;3.10;;
32786;SDS011;19139;49.372;8.580;2023-04-16T07:49:17;2.10;;;1.80;;
32786;SDS011;19139;49.372;8.580;2023-04-16T07:51:48;1.63;;;1.40;;
32786;SDS011;19139;49.372;8.580;2023-04-16T07:54:15;2.20;;;2.00;;
32786;SDS011;19139;49.372;8.580;2023-04-16T07:56:46;2.10;;;1.70;;
32786;SDS011;19139;49.372;8.580;2023-04-16T07:59:13;2.77;;;2.03;;
32786;SDS011;19139;49.372;8.580;2023-04-16T08:01:48;3.90;;;2.40;;
32786;SDS011;19139;49.372;8.580;2023-04-16T08:04:18;3.30;;;2.93;;
32786;SDS011;19139;49.372;8.580;2023-04-16T08:06:50;4.33;;;3.40;;
32786;SDS011;19139;49.372;8.580;2023-04-16T08:09:18;4.13;;;2.93;;
32786;SDS011;19139;49.372;8.580;2023-04-16T08:11:45;2.70;;;2.40;;
32786;SDS011;19139;49.372;8.580;2023-04-16T08:14:17;3.67;;;2.90;;
32786;SDS011;19139;49.372;8.580;2023-04-16T08:16:43;3.07;;;2.23;;
32786;SDS011;19139;49.372;8.580;2023-04-16T08:19:10;2.93;;;2.50;;
32786;SDS011;19139;49.372;8.580;2023-04-16T08:21:37;4.03;;;3.27;;
32786;SDS011;19139;49.372;8.580;2023-04-16T08:24:04;4.43;;;3.17;;
32786;SDS011;19139;49.372;8.580;2023-04-16T08:26:31;4.23;;;2.97;;
32786;SDS011;19139;49.372;8.580;2023-04-16T08:28:57;4.10;;;2.83;;
32786;SDS011;19139;49.372;8.580;2023-04-16T08:31:24;3.13;;;2.50;;
32786;SDS011;19139;49.372;8.580;2023-04-16T08:33:51;3.43;;;3.03;;
32786;SDS011;19139;49.372;8.580;2023-04-16T08:36:17;4.63;;;2.93;;
32786;SDS011;19139;49.372;8.580;2023-04-16T08:38:44;4.03;;;3.50;;
32786;SDS011;19139;49.372;8.580;2023-04-16T08:41:11;5.50;;;3.47;;
32786;SDS011;19139;49.372;8.580;2023-04-16T08:43:41;3.60;;;3.00;;
32786;SDS011;19139;49.372;8.580;2023-04-16T08:46:11;4.00;;;3.47;;
32786;SDS011;19139;49.372;8.580;2023-04-16T08:48:38;4.27;;;3.63;;
32786;SDS011;19139;49.372;8.580;2023-04-16T08:51:09;3.23;;;2.93;;
32786;SDS011;19139;49.372;8.580;2023-04-16T08:53:42;5.00;;;3.80;;
32786;SDS011;19139;49.372;8.580;2023-04-16T08:56:14;5.57;;;3.13;;
32786;SDS011;19139;49.372;8.580;2023-04-16T08:58:43;5.53;;;3.53;;
32786;SDS011;19139;49.372;8.580;2023-04-16T09:01:14;4.10;;;3.57;;
32786;SDS011;19139;49.372;8.580;2023-04-16T09:03:46;4.00;;;3.60;;
32786;SDS011;19139;49.372;8.580;2023-04-16T09:06:14;3.57;;;3.27;;
32786;SDS011;19139;49.372;8.580;2023-04-16T09:08:44;4.27;;;2.80;;
32786;SDS011;19139;49.372;8.580;2023-04-16T09:11:12;4.17;;;3.70;;
32786;SDS011;19139;49.372;8.580;2023-04-16T09:13:42;4.50;;;3.67;;
32786;SDS011;19139;49.372;8.580;2023-04-16T09:16:10;3.70;;;3.30;;
32786;SDS011;19139;49.372;8.580;2023-04-16T09:18:38;4.70;;;3.87;;
32786;SDS011;19139;49.372;8.580;2023-04-16T09:21:10;3.60;;;2.97;;
32786;SDS011;19139;49.372;8.580;2023-04-16T09:23:37;5.20;;;3.27;;
32786;SDS011;19139;49.372;8.580;2023-04-16T09:26:05;5.57;;;3.70;;
32786;SDS011;19139;49.372;8.580;2023-04-16T09:31:17;4.63;;;3.67;;
32786;SDS011;19139;49.372;8.580;2023-04-16T09:34:03;5.77;;;4.03;;
32786;SDS011;19139;49.372;8.580;2023-04-16T09:36:32;4.00;;;3.60;;
32786;SDS011;19139;49.372;8.580;2023-04-16T09:38:59;4.03;;;3.13;;
32786;SDS011;19139;49.372;8.580;2023-04-16T09:41:27;4.03;;;3.30;;
32786;SDS011;19139;49.372;8.580;2023-04-16T09:44:01;3.73;;;3.33;;
32786;SDS011;19139;49.372;8.580;2023-04-16T09:46:36;4.30;;;3.77;;
32786;SDS011;19139;49.372;8.580;2023-04-16T09:49:15;4.23;;;3.37;;
32786;SDS011;19139;49.372;8.580;2023-04-16T09:51:44;4.33;;;3.67;;
32786;SDS011;19139;49.372;8.580;2023-04-16T09:54:18;4.90;;;3.70;;
32786;SDS011;19139;49.372;8.580;2023-04-16T09:56:45;4.37;;;3.93;;
32786;SDS011;19139;49.372;8.580;2023-04-16T09:59:17;4.57;;;3.90;;
32786;SDS011;19139;49.372;8.580;2023-04-16T10:01:49;3.70;;;3.33;;
32786;SDS011;19139;49.372;8.580;2023-04-16T10:04:50;3.37;;;2.97;;
32786;SDS011;19139;49.372;8.580;2023-04-16T10:07:18;3.40;;;3.10;;
32786;SDS011;19139;49.372;8.580;2023-04-16T10:09:46;4.53;;;3.70;;
32786;SDS011;19139;49.372;8.580;2023-04-16T10:12:13;3.50;;;3.20;;
32786;SDS011;19139;49.372;8.580;2023-04-16T10:14:41;4.07;;;3.10;;
32786;SDS011;19139;49.372;8.580;2023-04-16T10:17:13;3.37;;;3.07;;
32786;SDS011;19139;49.372;8.580;2023-04-16T10:19:41;5.20;;;3.70;;
32786;SDS011;19139;49.372;8.580;2023-04-16T10:22:08;7.57;;;3.10;;
32786;SDS011;19139;49.372;8.580;2023-04-16T10:24:36;5.20;;;3.20;;
32786;SDS011;19139;49.372;8.580;2023-04-16T10:27:08;3.83;;;3.10;;
32786;SDS011;19139;49.372;8.580;2023-04-16T10:29:40;4.07;;;3.60;;
32786;SDS011;19139;49.372;8.580;2023-04-16T10:32:12;4.53;;;3.77;;
32786;SDS011;19139;49.372;8.580;2023-04-16T10:34:39;3.73;;;3.37;;
32786;SDS011;19139;49.372;8.580;2023-04-16T10:37:11;6.70;;;3.67;;
32786;SDS011;19139;49.372;8.580;2023-04-16T10:39:38;4.47;;;3.10;;
32786;SDS011;19139;49.372;8.580;2023-04-16T10:42:05;4.30;;;3.10;;
32786;SDS011;19139;49.372;8.580;2023-04-16T10:44:33;5.80;;;3.37;;
32786;SDS011;19139;49.372;8.580;2023-04-16T10:47:09;5.33;;;3.43;;
32786;SDS011;19139;49.372;8.580;2023-04-16T10:49:37;4.63;;;3.30;;
32786;SDS011;19139;49.372;8.580;2023-04-16T10:52:14;4.13;;;2.93;;
32786;SDS011;19139;49.372;8.580;2023-04-16T10:54:45;3.93;;;3.50;;
32786;SDS011;19139;49.372;8.580;2023-04-16T10:57:18;4.60;;;3.50;;
32786;SDS011;19139;49.372;8.580;2023-04-16T10:59:45;4.63;;;3.73;;
32786;SDS011;19139;49.372;8.580;2023-04-16T11:02:19;3.73;;;3.30;;
32786;SDS011;19139;49.372;8.580;2023-04-16T11:04:50;5.00;;;3.40;;
32786;SDS011;19139;49.372;8.580;2023-04-16T11:07:31;5.07;;;3.30;;
32786;SDS011;19139;49.372;8.580;2023-04-16T11:10:04;4.40;;;3.07;;
32786;SDS011;19139;49.372;8.580;2023-04-16T11:12:35;3.63;;;3.20;;
32786;SDS011;19139;49.372;8.580;2023-04-16T11:15:10;4.90;;;3.23;;
32786;SDS011;19139;49.372;8.580;2023-04-16T11:20:07;4.97;;;3.23;;
32786;SDS011;19139;49.372;8.580;2023-04-16T11:22:44;5.57;;;4.13;;
32786;SDS011;19139;49.372;8.580;2023-04-16T11:25:11;3.17;;;2.70;;
32786;SDS011;19139;49.372;8.580;2023-04-16T11:27:38;4.77;;;3.23;;
32786;SDS011;19139;49.372;8.580;2023-04-16T11:30:06;2.67;;;2.47;;
32786;SDS011;19139;49.372;8.580;2023-04-16T11:32:35;6.37;;;3.80;;
32786;SDS011;19139;49.372;8.580;2023-04-16T11:35:04;4.33;;;3.13;;
32786;SDS011;19139;49.372;8.580;2023-04-16T11:37:49;4.50;;;3.40;;
32786;SDS011;19139;49.372;8.580;2023-04-16T11:40:22;4.30;;;3.17;;
32786;SDS011;19139;49.372;8.580;2023-04-16T11:42:53;4.70;;;3.03;;
32786;SDS011;19139;49.372;8.580;2023-04-16T11:45:20;3.83;;;3.37;;
32786;SDS011;19139;49.372;8.580;2023-04-16T11:47:47;3.53;;;2.77;;
32786;SDS011;19139;49.372;8.580;2023-04-16T11:52:51;4.30;;;3.10;;
32786;SDS011;19139;49.372;8.580;2023-04-16T11:55:19;4.47;;;2.90;;
32786;SDS011;19139;49.372;8.580;2023-04-16T11:57:46;4.43;;;3.07;;
32786;SDS011;19139;49.372;8.580;2023-04-16T12:00:13;3.87;;;3.00;;
32786;SDS011;19139;49.372;8.580;2023-04-16T12:02:44;4.10;;;2.83;;
32786;SDS011;19139;49.372;8.580;2023-04-16T12:05:34;3.63;;;3.10;;
32786;SDS011;19139;49.372;8.580;2023-04-16T12:08:04;3.13;;;2.83;;
32786;SDS011;19139;49.372;8.580;2023-04-16T12:10:53;3.17;;;2.47;;
32786;SDS011;19139;49.372;8.580;2023-04-16T12:13:20;3.20;;;2.87;;
32786;SDS011;19139;49.372;8.580;2023-04-16T12:15:53;6.57;;;3.97;;
32786;SDS011;19139;49.372;8.580;2023-04-16T12:18:22;3.53;;;2.80;;
32786;SDS011;19139;49.372;8.580;2023-04-16T12:20:58;4.17;;;3.20;;
32786;SDS011;19139;49.372;8.580;2023-04-16T12:23:34;3.27;;;2.97;;
32786;SDS011;19139;49.372;8.580;2023-04-16T12:26:07;3.03;;;2.67;;
32786;SDS011;19139;49.372;8.580;2023-04-16T12:28:37;4.37;;;3.50;;
32786;SDS011;19139;49.372;8.580;2023-04-16T12:31:05;3.27;;;2.70;;
32786;SDS011;19139;49.372;8.580;2023-04-16T12:33:33;3.23;;;2.90;;
32786;SDS011;19139;49.372;8.580;2023-04-16T12:36:00;3.57;;;2.73;;
32786;SDS011;19139;49.372;8.580;2023-04-16T12:38:41;3.30;;;3.00;;
32786;SDS011;19139;49.372;8.580;2023-04-16T12:41:08;3.30;;;2.93;;
32786;SDS011;19139;49.372;8.580;2023-04-16T12:43:35;4.70;;;3.37;;
32786;SDS011;19139;49.372;8.580;2023-04-16T12:46:01;4.07;;;2.97;;
32786;SDS011;19139;49.372;8.580;2023-04-16T12:48:29;3.77;;;3.33;;
32786;SDS011;19139;49.372;8.580;2023-04-16T12:50:57;4.13;;;3.63;;
32786;SDS011;19139;49.372;8.580;2023-04-16T12:53:23;3.80;;;3.20;;
32786;SDS011;19139;49.372;8.580;2023-04-16T12:55:50;3.27;;;2.97;;
32786;SDS011;19139;49.372;8.580;2023-04-16T12:58:22;2.90;;;2.60;;
32786;SDS011;19139;49.372;8.580;2023-04-16T13:00:53;3.80;;;2.90;;
32786;SDS011;19139;49.372;8.580;2023-04-16T13:03:20;3.47;;;3.13;;
32786;SDS011;19139;49.372;8.580;2023-04-16T13:05:47;5.50;;;4.83;;
32786;SDS011;19139;49.372;8.580;2023-04-16T13:08:13;7.43;;;6.70;;
32786;SDS011;19139;49.372;8.580;2023-04-16T13:10:40;9.00;;;6.43;;
32786;SDS011;19139;49.372;8.580;2023-04-16T13:13:07;7.63;;;6.47;;
32786;SDS011;19139;49.372;8.580;2023-04-16T13:15:34;8.17;;;5.80;;
32786;SDS011;19139;49.372;8.580;2023-04-16T13:18:00;9.03;;;6.13;;
32786;SDS011;19139;49.372;8.580;2023-04-16T13:20:32;6.43;;;5.10;;
32786;SDS011;19139;49.372;8.580;2023-04-16T13:22:59;7.27;;;5.30;;
32786;SDS011;19139;49.372;8.580;2023-04-16T13:25:25;8.03;;;6.13;;
32786;SDS011;19139;49.372;8.580;2023-04-16T13:27:52;7.67;;;5.57;;
32786;SDS011;19139;49.372;8.580;2023-04-16T13:30:18;9.97;;;6.50;;
32786;SDS011;19139;49.372;8.580;2023-04-16T13:32:45;7.67;;;6.10;;
32786;SDS011;19139;49.372;8.580;2023-04-16T13:35:12;8.97;;;6.47;;
32786;SDS011;19139;49.372;8.580;2023-04-16T13:37:38;7.50;;;6.27;;
32786;SDS011;19139;49.372;8.580;2023-04-16T13:40:05;11.23;;;6.30;;
32786;SDS011;19139;49.372;8.580;2023-04-16T13:42:32;9.77;;;5.57;;
32786;SDS011;19139;49.372;8.580;2023-04-16T13:44:59;11.80;;;6.57;;
32786;SDS011;19139;49.372;8.580;2023-04-16T13:47:26;8.63;;;5.57;;
32786;SDS011;19139;49.372;8.580;2023-04-16T13:49:53;9.53;;;6.13;;
32786;SDS011;19139;49.372;8.580;2023-04-16T13:52:19;8.33;;;6.83;;
32786;SDS011;19139;49.372;8.580;2023-04-16T13:54:46;6.70;;;4.77;;
32786;SDS011;19139;49.372;8.580;2023-04-16T13:57:13;9.47;;;5.50;;
32786;SDS011;19139;49.372;8.580;2023-04-16T13:59:39;7.60;;;5.20;;
32786;SDS011;19139;49.372;8.580;2023-04-16T14:02:06;8.37;;;5.90;;
32786;SDS011;19139;49.372;8.580;2023-04-16T14:04:38;10.13;;;5.97;;
32786;SDS011;19139;49.372;8.580;2023-04-16T14:07:09;6.87;;;5.07;;
32786;SDS011;19139;49.372;8.580;2023-04-16T14:09:41;6.03;;;5.40;;
32786;SDS011;19139;49.372;8.580;2023-04-16T14:12:12;5.97;;;5.10;;
32786;SDS011;19139;49.372;8.580;2023-04-16T14:14:44;7.43;;;5.53;;
32786;SDS011;19139;49.372;8.580;2023-04-16T14:17:16;6.37;;;4.50;;
32786;SDS011;19139;49.372;8.580;2023-04-16T14:19:47;6.13;;;4.97;;
32786;SDS011;19139;49.372;8.580;2023-04-16T14:22:14;8.03;;;4.80;;
32786;SDS011;19139;49.372;8.580;2023-04-16T14:24:43;6.53;;;5.17;;
32786;SDS011;19139;49.372;8.580;2023-04-16T14:27:14;6.50;;;5.67;;
32786;SDS011;19139;49.372;8.580;2023-04-16T14:29:42;6.97;;;5.43;;
32786;SDS011;19139;49.372;8.580;2023-04-16T14:32:14;5.90;;;5.13;;
32786;SDS011;19139;49.372;8.580;2023-04-16T14:34:41;7.63;;;4.83;;
32786;SDS011;19139;49.372;8.580;2023-04-16T14:37:13;7.70;;;5.60;;
32786;SDS011;19139;49.372;8.580;2023-04-16T14:39:46;5.77;;;5.17;;
32786;SDS011;19139;49.372;8.580;2023-04-16T14:42:18;5.77;;;5.17;;
32786;SDS011;19139;49.372;8.580;2023-04-16T14:44:44;6.13;;;5.20;;
32786;SDS011;19139;49.372;8.580;2023-04-16T14:47:11;5.47;;;4.83;;
32786;SDS011;19139;49.372;8.580;2023-04-16T14:49:38;7.57;;;5.23;;
32786;SDS011;19139;49.372;8.580;2023-04-16T14:52:05;6.87;;;5.47;;
32786;SDS011;19139;49.372;8.580;2023-04-16T14:54:32;5.57;;;5.00;;
32786;SDS011;19139;49.372;8.580;2023-04-16T14:56:59;5.73;;;5.07;;
32786;SDS011;19139;49.372;8.580;2023-04-16T14:59:31;8.23;;;5.87;;
32786;SDS011;19139;49.372;8.580;2023-04-16T15:01:58;5.87;;;5.20;;
32786;SDS011;19139;49.372;8.580;2023-04-16T15:04:29;7.53;;;4.43;;
32786;SDS011;19139;49.372;8.580;2023-04-16T15:06:56;5.53;;;4.67;;